首页
METAR-TAF:

METAR-TAF

机场 :

匹兹堡 / West Mifflin, 宾夕法尼亚州, 美国

纬度: 40-21-17N, 经度: 079-55-18W, 海拔: 382米

当前天气观测

该预报发布于15分钟前的10:53 UTC
风速6节,风向
温度 21°C
湿度 88%
气压 1023 hPa
能見度: 14.5公里
散云层高于6500英尺

METAR: KAGC 271053Z 18006KT 9SM SCT065 21/19 A3020 RMK AO2 SLP221 T02060194

时间: 07:08 (11:08 UTC)

预报

该预报发布于5小时和48分钟前的05:20 UTC
预报有效从27日的 06点(UTC)到 28日的 06点(UTC)
风速6节,风向西
能見度: 10公里
多云层高于25000英尺
从 27日的 1600点(UTC)
风速5节,风向西
能見度: 10公里
多云层高于5000英尺
从 28日的 0000点(UTC)
风速3节,风向多变
能見度: 10公里
散云层高于25000英尺

TAF: KAGC 270520Z 2706/2806 27006KT P6SM BKN250 FM271600 26005KT P6SM BKN050 FM280000 VRB03KT P6SM SCT250

超过4000个机场的气象观测和天气预报(METAR&TAF报告)。

可查询的气象台以黄色和红色小点在地图上表示。

将鼠标移到小点上方,可查看气象台名称。

然后点击查看天气观测和预报。

如需切换地图:点击带黑十字的绿色按钮放大地图;点击带横线的绿色按钮缩小地图;或者点击绿色箭头查看邻近地区的地图。


METAR-TAF: